Time;durP1;ratioP1;P1;durP2;ratioP2;P2;SDS_P1;SDS_P2;PMS_P1;PMS_P2;Temp;Humidity;BMP_temperature;BMP_pressure;BME280_temperature;BME280_humidity;BME280_pressure;Samples;Min_cycle;Max_cycle;Signal;HPM_P1;HPM_P2
2023/05/16 00:00:08;;;;;;;3.43;3.13;;;11.70;99.90;11.70;99952.00;;;;4944529;28;111194;-73
2023/05/16 00:02:36;;;;;;;3.30;2.97;;;11.70;99.90;11.70;99944.00;;;;4949189;28;82590;-74
2023/05/16 00:05:03;;;;;;;4.67;3.27;;;11.70;99.90;11.70;99942.00;;;;4949547;28;83863;-74
2023/05/16 00:07:30;;;;;;;2.73;2.50;;;11.70;99.90;11.70;99947.00;;;;4950404;28;82881;-73
2023/05/16 00:09:55;;;;;;;4.47;3.53;;;11.70;99.90;11.60;99953.00;;;;4950963;28;83014;-73
2023/05/16 00:12:21;;;;;;;3.43;2.87;;;11.60;99.90;11.60;99946.00;;;;4949997;28;82864;-73
2023/05/16 00:14:49;;;;;;;4.23;3.47;;;11.70;99.90;11.60;99943.00;;;;4947980;28;83873;-75
2023/05/16 00:17:16;;;;;;;3.03;2.67;;;11.60;99.90;11.50;99953.00;;;;4950985;28;82097;-75
2023/05/16 00:19:43;;;;;;;3.50;3.13;;;11.60;99.90;11.50;99958.00;;;;4945159;28;82738;-74
2023/05/16 00:22:10;;;;;;;4.37;2.97;;;11.60;99.90;11.50;99953.00;;;;4951386;28;82872;-75
2023/05/16 00:24:36;;;;;;;3.73;3.43;;;11.60;99.90;11.50;99952.00;;;;4945223;28;85314;-76
2023/05/16 00:27:02;;;;;;;3.93;3.33;;;11.50;99.90;11.50;99957.00;;;;4948794;28;113190;-74
2023/05/16 00:29:30;;;;;;;3.73;3.07;;;12.00;99.90;11.40;99957.00;;;;4947754;28;82660;-73
2023/05/16 00:31:56;;;;;;;3.40;3.10;;;11.50;99.90;11.40;99954.00;;;;4953127;28;85473;-73
2023/05/16 00:34:22;;;;;;;5.57;3.90;;;11.40;99.90;11.40;99952.00;;;;4947119;28;83960;-73
2023/05/16 00:36:49;;;;;;;3.70;3.07;;;11.40;99.90;11.40;99953.00;;;;4946639;28;112461;-71
2023/05/16 00:39:15;;;;;;;4.30;3.50;;;11.40;99.90;11.30;99955.00;;;;4946459;28;82908;-72
2023/05/16 00:41:41;;;;;;;4.93;3.63;;;11.40;99.90;11.30;99958.00;;;;4949138;28;82246;-76
2023/05/16 00:44:07;;;;;;;3.87;3.33;;;11.30;99.90;11.30;99958.00;;;;4944176;28;113732;-74
2023/05/16 00:46:34;;;;;;;6.53;4.77;;;11.30;99.90;11.30;99962.00;;;;4947390;28;83073;-73
2023/05/16 00:49:00;;;;;;;3.70;3.13;;;11.30;99.90;11.20;99954.00;;;;4948984;28;83758;-72
2023/05/16 00:51:26;;;;;;;6.10;3.80;;;11.30;99.90;11.20;99970.00;;;;4946107;28;100609;-72
2023/05/16 00:53:53;;;;;;;3.93;3.63;;;11.30;99.90;11.20;99977.00;;;;4946358;28;112629;-73
2023/05/16 00:56:21;;;;;;;14.63;4.90;;;11.30;99.90;11.20;99969.00;;;;4948485;28;104381;-74
2023/05/16 00:58:46;;;;;;;4.10;3.70;;;11.30;99.90;11.20;99971.00;;;;4948940;28;83101;-72
2023/05/16 01:01:13;;;;;;;4.83;3.77;;;11.20;99.90;11.20;99975.00;;;;4946684;28;109119;-74
2023/05/16 01:03:38;;;;;;;4.40;3.07;;;11.20;99.90;11.20;99982.00;;;;4946752;28;85236;-73
2023/05/16 01:06:05;;;;;;;5.47;4.07;;;11.20;99.90;11.20;99980.00;;;;4948477;28;103145;-73
2023/05/16 01:08:30;;;;;;;11.70;5.27;;;11.20;99.90;11.20;99988.00;;;;4944125;28;82757;-75
2023/05/16 01:11:16;;;;;;;5.83;3.77;;;11.20;99.90;11.20;99984.00;;;;4946770;28;108077;-75
2023/05/16 01:14:23;;;;;;;5.23;4.67;;;11.20;99.90;11.10;99997.00;;;;4947476;28;84010;-75
2023/05/16 01:16:52;;;;;;;5.83;4.80;;;11.20;99.90;11.20;100002.00;;;;4947476;28;83060;-73
2023/05/16 01:19:48;;;;;;;4.77;4.33;;;11.20;99.90;11.10;100004.00;;;;4946921;28;93558;-73
2023/05/16 01:22:51;;;;;;;5.50;5.00;;;11.20;99.90;11.20;100004.00;;;;4962730;28;82906;-74
2023/05/16 01:25:55;;;;;;;5.60;4.03;;;11.30;99.90;11.20;100002.00;;;;4957613;28;83506;-75
2023/05/16 01:28:22;;;;;;;4.97;4.00;;;11.20;99.90;11.20;100002.00;;;;4949186;28;83071;-74
2023/05/16 01:30:49;;;;;;;3.80;3.50;;;11.30;99.90;11.20;100010.00;;;;4947024;28;83039;-74
2023/05/16 01:33:15;;;;;;;5.97;3.40;;;11.30;99.90;11.20;100006.00;;;;4952830;28;83822;-74
2023/05/16 01:36:06;;;;;;;5.30;4.30;;;11.20;99.90;11.20;100017.00;;;;4942260;28;83267;-74
2023/05/16 01:39:15;;;;;;;5.03;4.30;;;11.30;99.90;11.20;100028.00;;;;4949850;28;82703;-74
2023/05/16 01:42:06;;;;;;;3.50;3.20;;;11.20;99.90;11.10;100026.00;;;;4952734;28;83978;-73
2023/05/16 01:44:44;;;;;;;5.13;3.73;;;11.20;99.90;11.20;100027.00;;;;4932516;28;83000;-73
2023/05/16 01:47:15;;;;;;;5.60;4.50;;;11.20;99.90;11.20;100028.00;;;;4946526;28;83121;-73
2023/05/16 01:50:16;;;;;;;5.43;3.83;;;11.20;99.90;11.20;100028.00;;;;4947204;28;83320;-73
2023/05/16 01:53:08;;;;;;;3.67;3.17;;;11.20;99.90;11.10;100022.00;;;;4944971;28;82965;-74
2023/05/16 01:55:43;;;;;;;5.10;3.90;;;11.20;99.90;11.10;100029.00;;;;4952128;28;82798;-73
2023/05/16 01:58:10;;;;;;;8.10;4.23;;;11.20;99.90;11.00;100036.00;;;;4949355;28;84002;-73
2023/05/16 02:00:36;;;;;;;6.07;5.27;;;11.10;99.90;11.00;100035.00;;;;4948358;28;85304;-74
2023/05/16 02:03:01;;;;;;;6.17;4.20;;;11.10;99.90;11.00;100033.00;;;;4947444;28;110798;-74
2023/05/16 02:05:27;;;;;;;7.93;4.60;;;11.00;99.90;10.90;100038.00;;;;4946239;28;107449;-74
2023/05/16 02:07:53;;;;;;;7.53;4.67;;;11.00;99.90;10.90;100042.00;;;;4947423;28;112810;-74
2023/05/16 02:10:19;;;;;;;7.43;4.83;;;10.90;99.90;10.90;100041.00;;;;4956307;28;86657;-74
2023/05/16 02:12:45;;;;;;;5.73;4.43;;;10.90;99.90;10.80;100045.00;;;;4950750;28;83116;-74
2023/05/16 02:15:11;;;;;;;5.47;4.60;;;10.90;99.90;10.80;100042.00;;;;4949837;28;109122;-74
2023/05/16 02:17:36;;;;;;;5.90;4.30;;;10.90;99.90;10.80;100042.00;;;;4964504;28;111822;-73
2023/05/16 02:20:05;;;;;;;5.30;4.13;;;10.80;99.90;10.80;100054.00;;;;4949287;28;112741;-74
2023/05/16 02:22:32;;;;;;;5.97;4.43;;;10.80;99.90;10.70;100058.00;;;;4949473;28;82740;-74
2023/05/16 02:24:59;;;;;;;4.20;3.77;;;10.80;99.90;10.70;100047.00;;;;4954378;28;81985;-74
2023/05/16 02:27:25;;;;;;;7.13;4.57;;;10.80;99.90;10.70;100050.00;;;;4951785;28;86665;-73
2023/05/16 02:29:51;;;;;;;7.47;4.47;;;10.70;99.90;10.70;100059.00;;;;4945828;28;112353;-73
2023/05/16 02:32:16;;;;;;;6.63;4.80;;;10.70;99.90;10.60;100050.00;;;;4948892;28;109147;-73
2023/05/16 02:34:42;;;;;;;9.57;4.27;;;10.70;99.90;10.60;100048.00;;;;4947873;28;109718;-74
2023/05/16 02:37:08;;;;;;;5.43;4.93;;;11.10;99.90;10.60;100053.00;;;;4950586;28;111490;-74
2023/05/16 02:39:33;;;;;;;5.33;4.83;;;10.60;99.90;10.60;100056.00;;;;4946113;28;106365;-74
2023/05/16 02:41:59;;;;;;;8.33;5.13;;;10.60;99.90;10.60;100050.00;;;;4947654;28;82660;-75
2023/05/16 02:44:25;;;;;;;5.50;5.00;;;10.60;99.90;10.50;100045.00;;;;4948759;28;82841;-74
2023/05/16 02:46:50;;;;;;;4.70;3.87;;;10.60;99.90;10.50;100048.00;;;;4948629;28;113671;-74
2023/05/16 02:49:16;;;;;;;6.30;4.27;;;10.60;99.90;10.50;100051.00;;;;4946908;28;113272;-72
2023/05/16 02:51:42;;;;;;;6.07;4.27;;;10.60;99.90;10.50;100051.00;;;;4949951;28;94739;-73
2023/05/16 02:54:08;;;;;;;6.50;4.30;;;10.50;99.90;10.50;100048.00;;;;4949277;28;82850;-74
2023/05/16 02:56:35;;;;;;;10.33;6.43;;;10.50;99.90;10.40;100055.00;;;;4949928;28;83971;-76
2023/05/16 02:59:00;;;;;;;9.60;5.07;;;10.50;99.90;10.40;100064.00;;;;4944700;28;83187;-75
2023/05/16 03:01:26;;;;;;;6.30;4.53;;;10.50;99.90;10.40;100062.00;;;;4946870;28;110641;-74
2023/05/16 03:03:52;;;;;;;6.10;4.67;;;10.50;99.90;10.40;100067.00;;;;4944380;28;109533;-73
2023/05/16 03:06:17;;;;;;;7.73;5.80;;;10.50;99.90;10.40;100077.00;;;;4944912;28;98011;-75
2023/05/16 03:08:43;;;;;;;7.50;4.07;;;10.50;99.90;10.40;100082.00;;;;4948159;28;110665;-73
2023/05/16 03:11:08;;;;;;;9.07;6.53;;;10.40;99.90;10.40;100079.00;;;;4946152;28;109031;-74
2023/05/16 03:13:34;;;;;;;6.50;4.83;;;10.40;99.90;10.30;100079.00;;;;4950441;28;108545;-74
2023/05/16 03:16:00;;;;;;;8.90;5.97;;;10.40;99.90;10.30;100088.00;;;;4962946;28;100817;-73
2023/05/16 03:18:25;;;;;;;7.93;6.93;;;10.40;99.90;10.30;100088.00;;;;4949047;28;82747;-75
2023/05/16 03:20:51;;;;;;;9.37;6.33;;;10.40;99.90;10.30;100095.00;;;;4947624;28;109900;-75
2023/05/16 03:23:21;;;;;;;9.13;5.53;;;10.40;99.90;10.30;100103.00;;;;4947391;28;82801;-73
2023/05/16 03:25:47;;;;;;;8.57;6.23;;;10.40;99.90;10.30;100109.00;;;;4950261;28;83916;-76
2023/05/16 03:28:13;;;;;;;9.17;5.83;;;10.40;99.90;10.30;100107.00;;;;4944166;28;82614;-72
2023/05/16 03:30:38;;;;;;;6.17;5.30;;;10.30;99.90;10.30;100107.00;;;;4948729;28;83004;-74
2023/05/16 03:33:04;;;;;;;9.27;6.07;;;10.30;99.90;10.20;100115.00;;;;4946635;28;109097;-75
2023/05/16 03:35:31;;;;;;;7.53;5.47;;;10.30;99.90;10.20;100119.00;;;;4947953;28;83151;-74
2023/05/16 03:37:57;;;;;;;8.53;5.90;;;10.30;99.90;10.20;100119.00;;;;4948354;28;82480;-74
2023/05/16 03:40:22;;;;;;;6.93;5.50;;;10.30;99.90;10.20;100121.00;;;;4947464;28;109919;-72
2023/05/16 03:42:48;;;;;;;7.87;5.87;;;10.30;99.90;10.20;100126.00;;;;4948792;28;108632;-73
2023/05/16 03:45:15;;;;;;;9.87;6.10;;;10.30;99.90;10.20;100120.00;;;;4949024;28;112956;-73
2023/05/16 03:47:41;;;;;;;8.87;5.43;;;10.30;99.90;10.20;100128.00;;;;4955477;28;84708;-74
2023/05/16 03:50:08;;;;;;;7.60;6.03;;;10.30;99.90;10.20;100127.00;;;;4949922;28;82826;-75
2023/05/16 03:52:34;;;;;;;10.50;6.57;;;10.20;99.90;10.20;100132.00;;;;4950206;28;82850;-73
2023/05/16 03:55:04;;;;;;;5.60;4.93;;;10.20;99.90;10.20;100146.00;;;;4949204;28;83190;-73
2023/05/16 03:57:32;;;;;;;6.33;4.77;;;10.30;99.90;10.20;100144.00;;;;4946915;28;83538;-74
2023/05/16 03:59:57;;;;;;;7.43;6.00;;;10.30;99.90;10.20;100160.00;;;;4952044;28;82900;-73
2023/05/16 04:02:23;;;;;;;8.30;6.73;;;10.30;99.90;10.20;100158.00;;;;4949588;28;108216;-74
2023/05/16 04:04:48;;;;;;;6.17;5.27;;;10.30;99.90;10.30;100164.00;;;;4950304;28;113284;-73
2023/05/16 04:07:14;;;;;;;7.63;5.87;;;10.30;99.90;10.30;100167.00;;;;4947701;28;112473;-72
2023/05/16 04:09:40;;;;;;;7.70;6.87;;;10.30;99.90;10.40;100176.00;;;;4948790;28;83674;-72
2023/05/16 04:12:06;;;;;;;8.20;6.70;;;10.40;99.90;10.40;100164.00;;;;4963535;28;108903;-72
2023/05/16 04:14:34;;;;;;;8.60;6.83;;;10.40;99.90;10.40;100184.00;;;;4949237;28;87943;-73
2023/05/16 04:17:00;;;;;;;7.17;6.33;;;10.40;99.90;10.50;100175.00;;;;4946942;28;88313;-74
2023/05/16 04:19:26;;;;;;;7.23;6.53;;;10.50;99.90;10.60;100183.00;;;;4946414;28;110277;-72
2023/05/16 04:21:52;;;;;;;8.10;6.57;;;10.60;99.90;10.70;100187.00;;;;4948031;28;108113;-73
2023/05/16 04:24:17;;;;;;;6.67;6.03;;;10.70;99.90;10.80;100192.00;;;;4946417;28;82915;-72
2023/05/16 04:26:43;;;;;;;6.47;5.80;;;10.70;99.90;10.90;100194.00;;;;4946795;28;112830;-72
2023/05/16 04:29:10;;;;;;;7.70;6.93;;;10.80;99.90;11.00;100201.00;;;;4951151;28;90066;-72
2023/05/16 04:31:36;;;;;;;10.53;6.10;;;10.90;99.90;11.10;100211.00;;;;4949761;28;83169;-72
2023/05/16 04:34:02;;;;;;;7.37;6.00;;;11.00;99.90;11.10;100200.00;;;;4946633;28;84003;-73
2023/05/16 04:36:28;;;;;;;10.90;5.50;;;11.10;99.90;11.20;100213.00;;;;4948617;28;84434;-73
2023/05/16 04:38:55;;;;;;;7.23;4.20;;;11.20;99.90;11.30;100200.00;;;;4947726;28;82753;-73
2023/05/16 04:41:22;;;;;;;7.00;5.53;;;11.30;99.90;11.40;100204.00;;;;4951231;28;82994;-71
2023/05/16 04:43:48;;;;;;;5.80;4.30;;;11.40;99.90;11.40;100205.00;;;;4944277;28;82538;-74
2023/05/16 04:46:16;;;;;;;7.50;4.87;;;11.40;99.90;11.50;100220.00;;;;4948035;28;110779;-73
2023/05/16 04:48:42;;;;;;;5.30;4.80;;;11.50;99.90;11.60;100218.00;;;;4945205;28;82651;-71
2023/05/16 04:51:08;;;;;;;4.83;4.33;;;11.60;99.90;11.70;100223.00;;;;4944979;28;108165;-71
2023/05/16 04:53:33;;;;;;;6.97;4.53;;;11.70;99.90;11.80;100241.00;;;;4942418;28;111705;-73
2023/05/16 04:56:00;;;;;;;7.93;4.33;;;11.70;99.90;11.80;100233.00;;;;4944163;28;83422;-72
2023/05/16 04:58:26;;;;;;;4.23;3.83;;;11.80;99.90;11.80;100242.00;;;;4946369;28;83786;-71
2023/05/16 05:00:51;;;;;;;9.43;5.73;;;11.80;99.90;11.90;100244.00;;;;4944441;28;82733;-70
2023/05/16 05:03:17;;;;;;;5.30;4.33;;;11.90;99.90;11.90;100252.00;;;;4946777;28;106914;-70
2023/05/16 05:05:44;;;;;;;5.73;3.60;;;11.90;99.90;11.90;100257.00;;;;4944267;28;111505;-71
2023/05/16 05:08:10;;;;;;;6.53;5.03;;;11.90;99.90;11.90;100269.00;;;;4945743;28;83075;-72
2023/05/16 05:10:36;;;;;;;5.40;4.10;;;11.90;99.90;11.90;100276.00;;;;4945752;28;107509;-71
2023/05/16 05:13:01;;;;;;;5.43;4.80;;;11.90;99.90;11.90;100274.00;;;;4946900;28;112053;-71
2023/05/16 05:15:27;;;;;;;3.87;3.30;;;11.90;99.90;11.90;100276.00;;;;4947414;28;82680;-72
2023/05/16 05:17:53;;;;;;;5.87;3.93;;;11.90;99.90;11.90;100288.00;;;;4947158;28;109859;-71
2023/05/16 05:20:19;;;;;;;3.80;3.50;;;11.90;99.90;11.80;100278.00;;;;4945658;28;108733;-70
2023/05/16 05:22:44;;;;;;;6.63;5.13;;;11.90;99.90;11.80;100288.00;;;;4946740;28;84523;-71
2023/05/16 05:25:10;;;;;;;4.67;3.93;;;11.80;99.90;11.80;100280.00;;;;4945533;28;82985;-72
2023/05/16 05:27:36;;;;;;;5.93;4.30;;;11.80;99.90;11.70;100288.00;;;;4953307;28;84477;-70
2023/05/16 05:30:02;;;;;;;4.97;3.57;;;11.80;99.90;11.70;100283.00;;;;4959523;28;96311;-70
2023/05/16 05:32:28;;;;;;;3.67;3.37;;;11.70;99.90;11.70;100283.00;;;;4949802;28;83407;-71
2023/05/16 05:34:54;;;;;;;5.00;4.37;;;11.70;99.90;11.70;100287.00;;;;4950148;28;100081;-72
2023/05/16 05:37:20;;;;;;;4.70;4.17;;;11.70;99.90;11.70;100273.00;;;;4949960;28;82880;-70
2023/05/16 05:39:46;;;;;;;6.23;4.27;;;11.70;99.90;11.70;100272.00;;;;4948817;28;108691;-73
2023/05/16 05:42:11;;;;;;;5.20;4.70;;;11.70;99.90;11.70;100272.00;;;;4949903;28;83326;-72
2023/05/16 05:44:37;;;;;;;6.03;4.07;;;11.70;99.90;11.70;100282.00;;;;4946740;28;83469;-71
2023/05/16 05:47:06;;;;;;;7.20;4.57;;;11.70;99.90;11.70;100287.00;;;;4949116;28;103222;-71
2023/05/16 05:49:33;;;;;;;4.53;3.83;;;11.90;99.90;11.80;100290.00;;;;4950036;28;82801;-70
2023/05/16 05:51:58;;;;;;;5.87;4.20;;;11.70;99.90;11.80;100294.00;;;;4955849;28;113393;-71
2023/05/16 05:54:24;;;;;;;4.07;3.67;;;11.80;99.90;11.80;100295.00;;;;4952794;28;111751;-72
2023/05/16 05:56:50;;;;;;;6.67;4.37;;;11.80;99.90;11.80;100298.00;;;;4948253;28;82745;-70
2023/05/16 05:59:16;;;;;;;3.27;2.97;;;11.80;99.90;11.90;100304.00;;;;4947679;28;109513;-71
2023/05/16 06:01:43;;;;;;;4.63;3.97;;;11.90;99.90;11.90;100302.00;;;;4952118;28;91301;-70
2023/05/16 06:04:09;;;;;;;6.17;4.63;;;11.90;99.90;11.90;100306.00;;;;4948918;28;84327;-73
2023/05/16 06:06:35;;;;;;;7.67;4.77;;;11.90;99.90;11.90;100303.00;;;;4952302;28;82763;-70
2023/05/16 06:09:00;;;;;;;5.57;4.07;;;11.90;99.90;11.90;100305.00;;;;4956049;28;83064;-70
2023/05/16 06:11:26;;;;;;;4.27;3.47;;;11.90;99.90;12.00;100308.00;;;;4947449;28;112566;-70
2023/05/16 06:13:52;;;;;;;5.77;3.83;;;11.90;99.90;12.00;100318.00;;;;4947749;28;113735;-72
2023/05/16 06:16:17;;;;;;;5.63;4.23;;;12.00;99.90;12.00;100312.00;;;;4951181;28;110694;-69
2023/05/16 06:18:43;;;;;;;7.60;5.07;;;12.00;99.90;12.00;100316.00;;;;4948593;28;108241;-72
2023/05/16 06:21:09;;;;;;;5.53;4.50;;;12.00;99.90;11.90;100333.00;;;;4948674;28;112541;-71
2023/05/16 06:23:35;;;;;;;6.17;4.90;;;11.90;99.90;12.00;100333.00;;;;4946383;28;82806;-73
2023/05/16 06:26:02;;;;;;;5.00;3.70;;;11.90;99.90;12.00;100334.00;;;;4932559;28;110655;-70
2023/05/16 06:28:28;;;;;;;7.40;5.17;;;12.00;99.90;12.00;100346.00;;;;4945053;28;98176;-70
2023/05/16 06:30:54;;;;;;;5.07;4.57;;;12.00;99.90;12.10;100347.00;;;;4948187;28;99852;-71
2023/05/16 06:33:20;;;;;;;5.27;4.40;;;12.00;99.90;12.10;100344.00;;;;4948464;28;113381;-72
2023/05/16 06:35:47;;;;;;;5.23;4.73;;;12.10;99.90;12.10;100339.00;;;;4947137;28;83722;-72
2023/05/16 06:38:13;;;;;;;9.07;5.87;;;12.10;99.90;12.20;100353.00;;;;4936982;28;83434;-72
2023/05/16 06:40:39;;;;;;;5.53;4.73;;;12.10;99.90;12.20;100359.00;;;;4947311;28;102764;-72
2023/05/16 06:43:05;;;;;;;6.13;4.70;;;12.10;99.90;12.10;100356.00;;;;4949237;28;83455;-73
2023/05/16 06:45:31;;;;;;;5.93;4.93;;;12.10;99.90;12.10;100370.00;;;;4953214;28;82918;-70
2023/05/16 06:47:57;;;;;;;9.27;5.93;;;12.10;99.90;12.00;100371.00;;;;4949784;28;101355;-72
2023/05/16 06:50:22;;;;;;;8.30;6.33;;;12.10;99.90;12.00;100372.00;;;;4948089;28;82667;-72
2023/05/16 06:52:48;;;;;;;7.03;5.37;;;12.00;99.90;12.00;100374.00;;;;4951091;28;82018;-73
2023/05/16 06:55:14;;;;;;;8.17;5.73;;;12.00;99.90;12.00;100370.00;;;;4947302;28;82839;-72
2023/05/16 06:57:39;;;;;;;5.00;4.47;;;12.00;99.90;12.00;100377.00;;;;4950795;28;108995;-70
2023/05/16 07:00:07;;;;;;;6.90;4.57;;;12.00;99.90;12.00;100389.00;;;;4949100;28;83506;-71
2023/05/16 07:02:33;;;;;;;7.60;5.00;;;12.00;99.90;12.00;100390.00;;;;4948034;28;84293;-70
2023/05/16 07:04:59;;;;;;;6.77;4.47;;;12.00;99.90;11.90;100385.00;;;;4947343;28;110178;-70
2023/05/16 07:07:24;;;;;;;8.67;4.47;;;11.90;99.90;11.90;100396.00;;;;4947079;28;110309;-71
2023/05/16 07:09:50;;;;;;;6.77;4.93;;;11.90;99.90;11.90;100394.00;;;;4946763;28;82904;-71
2023/05/16 07:12:16;;;;;;;4.97;3.53;;;11.90;99.90;11.90;100399.00;;;;4948514;28;112500;-71
2023/05/16 07:14:42;;;;;;;4.53;4.10;;;11.90;99.90;11.90;100396.00;;;;4948795;28;82657;-71
2023/05/16 07:17:09;;;;;;;7.37;4.87;;;11.90;99.90;11.80;100395.00;;;;4946629;28;82196;-71
2023/05/16 07:19:34;;;;;;;4.80;4.23;;;11.90;99.90;11.80;100394.00;;;;4951441;28;83755;-70
2023/05/16 07:22:00;;;;;;;6.23;4.97;;;11.80;99.90;11.80;100395.00;;;;4950529;28;83001;-71
2023/05/16 07:24:26;;;;;;;5.43;3.73;;;11.80;99.90;11.80;100410.00;;;;4946481;28;83961;-71
2023/05/16 07:26:52;;;;;;;5.90;4.13;;;11.80;99.90;11.80;100412.00;;;;4949083;28;108504;-70
2023/05/16 07:29:17;;;;;;;5.47;3.87;;;11.80;99.90;11.90;100415.00;;;;4946341;28;113408;-71
2023/05/16 07:31:43;;;;;;;7.80;4.93;;;11.80;99.90;11.80;100404.00;;;;4948843;28;112457;-70
2023/05/16 07:34:10;;;;;;;5.20;4.20;;;11.80;99.90;11.90;100404.00;;;;4947138;28;110450;-70
2023/05/16 07:36:37;;;;;;;4.70;4.23;;;11.80;99.90;11.90;100393.00;;;;4947840;28;82871;-71
2023/05/16 07:39:03;;;;;;;7.60;4.73;;;11.90;99.90;11.90;100396.00;;;;4948218;28;84020;-68
2023/05/16 07:41:29;;;;;;;5.00;4.23;;;11.90;99.90;11.90;100396.00;;;;4948047;28;82843;-70
2023/05/16 07:43:55;;;;;;;4.73;4.20;;;11.80;99.90;11.90;100402.00;;;;4947338;28;96926;-70
2023/05/16 07:46:21;;;;;;;6.90;4.63;;;11.90;99.90;11.90;100395.00;;;;4950839;28;109395;-71
2023/05/16 07:48:47;;;;;;;7.23;4.70;;;11.90;99.90;11.90;100394.00;;;;4948358;28;84167;-71
2023/05/16 07:51:12;;;;;;;4.93;4.37;;;11.80;99.90;11.90;100397.00;;;;4949013;28;113912;-71
2023/05/16 07:53:38;;;;;;;3.87;3.50;;;11.90;99.90;11.90;100400.00;;;;4946089;28;110455;-70
2023/05/16 07:56:05;;;;;;;4.93;3.63;;;11.90;99.90;12.00;100402.00;;;;4946552;28;93087;-71
2023/05/16 07:58:31;;;;;;;3.87;3.47;;;12.00;99.90;12.10;100406.00;;;;4946929;28;84010;-71
2023/05/16 08:00:57;;;;;;;5.83;4.07;;;12.10;99.90;12.10;100395.00;;;;4948059;28;112745;-71
2023/05/16 08:03:22;;;;;;;6.10;3.73;;;12.10;99.90;12.20;100397.00;;;;4944500;28;110413;-71
2023/05/16 08:05:48;;;;;;;3.57;3.20;;;12.10;99.90;12.20;100388.00;;;;4948494;28;108739;-71
2023/05/16 08:08:14;;;;;;;5.33;4.10;;;12.20;99.90;12.30;100396.00;;;;4949946;28;83891;-71
2023/05/16 08:10:39;;;;;;;5.40;4.13;;;12.30;99.90;12.40;100402.00;;;;4948197;28;94463;-72
2023/05/16 08:13:05;;;;;;;7.33;4.03;;;12.30;99.90;12.40;100394.00;;;;4946362;28;110349;-69
2023/05/16 08:15:31;;;;;;;9.23;4.70;;;12.40;99.90;12.50;100394.00;;;;4947694;28;107407;-71
2023/05/16 08:17:57;;;;;;;5.77;4.03;;;12.40;99.90;12.50;100394.00;;;;4945937;28;111577;-70
2023/05/16 08:20:24;;;;;;;5.90;4.20;;;12.40;99.90;12.40;100395.00;;;;4947808;28;86075;-71
2023/05/16 08:22:51;;;;;;;4.50;3.60;;;12.40;99.90;12.50;100407.00;;;;4947709;28;82709;-71
2023/05/16 08:25:17;;;;;;;5.70;4.53;;;12.40;99.90;12.40;100400.00;;;;4948113;28;82963;-70
2023/05/16 08:27:45;;;;;;;5.90;3.87;;;12.40;99.90;12.40;100405.00;;;;4948236;28;83221;-70
2023/05/16 08:30:11;;;;;;;3.60;2.90;;;12.40;99.90;12.40;100411.00;;;;4948487;28;82227;-70
2023/05/16 08:32:37;;;;;;;5.13;3.80;;;12.40;99.90;12.30;100407.00;;;;4947681;28;82869;-70
2023/05/16 08:35:04;;;;;;;5.23;3.27;;;12.30;99.90;12.30;100413.00;;;;4951010;28;84360;-69
2023/05/16 08:37:29;;;;;;;4.20;3.20;;;12.30;99.90;12.30;100429.00;;;;4945701;28;105568;-70
2023/05/16 08:39:55;;;;;;;6.93;4.27;;;12.30;99.90;12.40;100432.00;;;;4948299;28;84594;-71
2023/05/16 08:42:21;;;;;;;5.93;3.40;;;12.30;99.90;12.40;100444.00;;;;4947885;28;110020;-70
2023/05/16 08:44:46;;;;;;;5.77;3.50;;;12.40;99.90;12.40;100444.00;;;;4946495;28;107606;-71
2023/05/16 08:47:20;;;;;;;3.70;3.33;;;12.40;99.90;12.40;100443.00;;;;4947656;28;112766;-71
2023/05/16 08:49:51;;;;;;;4.17;3.53;;;12.40;99.90;12.40;100443.00;;;;4946506;28;82792;-71
2023/05/16 08:52:20;;;;;;;4.97;3.27;;;12.40;99.90;12.40;100453.00;;;;4951649;28;82795;-71
2023/05/16 08:54:47;;;;;;;3.87;3.20;;;12.40;99.90;12.40;100447.00;;;;4952740;28;82124;-70
2023/05/16 08:57:13;;;;;;;3.20;2.90;;;12.40;99.90;12.50;100441.00;;;;4954122;28;83415;-71
2023/05/16 08:59:40;;;;;;;4.97;3.33;;;12.40;99.90;12.50;100452.00;;;;4948148;28;92501;-72
2023/05/16 09:02:07;;;;;;;6.13;3.30;;;12.50;99.90;12.60;100456.00;;;;4957549;28;112196;-71
2023/05/16 09:04:33;;;;;;;4.13;2.90;;;12.50;99.90;12.60;100470.00;;;;4947857;28;107918;-72
2023/05/16 09:06:59;;;;;;;5.13;3.27;;;12.50;99.90;12.60;100481.00;;;;4949033;28;83876;-71
2023/05/16 09:09:24;;;;;;;3.43;2.70;;;12.60;99.90;12.60;100465.00;;;;4953668;28;111929;-70
2023/05/16 09:11:50;;;;;;;3.40;2.90;;;12.60;99.90;12.60;100467.00;;;;4948625;28;109853;-72
2023/05/16 09:14:16;;;;;;;3.70;3.03;;;12.60;99.90;12.70;100468.00;;;;4950746;28;100875;-72
2023/05/16 09:16:43;;;;;;;4.80;3.07;;;12.60;99.90;12.70;100483.00;;;;4949211;28;82977;-72
2023/05/16 09:19:12;;;;;;;8.33;3.13;;;12.70;99.90;12.80;100495.00;;;;4948136;28;102537;-72
2023/05/16 09:21:39;;;;;;;3.17;2.97;;;12.70;99.90;12.80;100495.00;;;;4951841;28;82794;-73
2023/05/16 09:24:08;;;;;;;3.87;3.23;;;12.80;99.90;12.90;100496.00;;;;4951978;28;103150;-70
2023/05/16 09:26:37;;;;;;;3.10;2.80;;;12.80;99.90;12.90;100483.00;;;;4950831;28;84236;-73
2023/05/16 09:29:12;;;;;;;8.17;2.37;;;12.80;99.90;12.90;100475.00;;;;4950261;28;84499;-70
2023/05/16 09:31:38;;;;;;;2.27;1.90;;;12.90;99.90;13.00;100494.00;;;;4949768;28;94738;-72
2023/05/16 09:34:09;;;;;;;2.97;2.67;;;12.90;99.90;13.00;100487.00;;;;4947897;28;101300;-70
2023/05/16 09:36:35;;;;;;;6.60;2.60;;;12.90;99.90;13.10;100483.00;;;;4948071;28;84063;-70
2023/05/16 09:39:01;;;;;;;2.27;1.93;;;13.00;99.90;13.10;100477.00;;;;4948649;28;82789;-70
2023/05/16 09:41:26;;;;;;;2.20;2.00;;;13.00;99.90;13.10;100485.00;;;;4947165;28;111553;-71
2023/05/16 09:43:52;;;;;;;3.50;2.60;;;13.00;99.90;13.20;100488.00;;;;4951550;28;109614;-69
2023/05/16 09:46:18;;;;;;;2.50;1.90;;;13.10;99.90;13.20;100489.00;;;;4953870;28;98862;-70
2023/05/16 09:48:46;;;;;;;5.20;2.77;;;13.20;99.90;13.30;100501.00;;;;4951549;28;85215;-70
2023/05/16 09:51:13;;;;;;;3.23;2.83;;;13.20;99.90;13.30;100498.00;;;;4950563;28;83576;-72
2023/05/16 09:53:40;;;;;;;2.53;2.27;;;13.20;99.90;13.30;100510.00;;;;4950020;28;82911;-72
2023/05/16 09:56:16;;;;;;;4.37;2.53;;;13.20;99.90;13.30;100523.00;;;;4938372;28;83235;-71
2023/05/16 09:58:44;;;;;;;3.97;2.90;;;13.30;99.90;13.30;100524.00;;;;4950127;28;82799;-72
2023/05/16 10:01:10;;;;;;;3.83;3.03;;;13.30;99.90;13.30;100527.00;;;;4950409;28;83093;-71
2023/05/16 10:03:41;;;;;;;2.03;1.67;;;13.30;99.90;13.40;100520.00;;;;4951640;28;82885;-70
2023/05/16 10:06:07;;;;;;;4.73;2.53;;;13.30;99.90;13.40;100520.00;;;;4949462;28;83418;-70
2023/05/16 10:08:35;;;;;;;2.80;2.00;;;13.30;99.90;13.30;100519.00;;;;4950567;28;83186;-71
2023/05/16 10:11:03;;;;;;;2.20;2.00;;;13.30;99.90;13.30;100516.00;;;;4949943;28;82597;-70
2023/05/16 10:13:32;;;;;;;4.57;2.57;;;13.30;99.90;13.30;100530.00;;;;4950560;28;82684;-71
2023/05/16 10:16:05;;;;;;;3.33;2.07;;;13.30;99.90;13.30;100532.00;;;;4945852;28;85152;-72
2023/05/16 10:18:31;;;;;;;3.57;2.47;;;13.30;99.90;13.30;100536.00;;;;4946974;28;84671;-69
2023/05/16 10:21:05;;;;;;;3.13;1.63;;;13.20;99.90;13.30;100538.00;;;;4953240;28;94450;-71
2023/05/16 10:23:32;;;;;;;2.30;2.00;;;13.30;99.90;13.30;100544.00;;;;4948993;28;82716;-70
2023/05/16 10:26:02;;;;;;;5.30;1.67;;;13.30;99.90;13.30;100537.00;;;;4951457;28;103499;-71
2023/05/16 10:28:28;;;;;;;3.67;2.30;;;13.20;99.90;13.30;100540.00;;;;4947063;28;82958;-71
2023/05/16 10:30:54;;;;;;;1.77;1.57;;;13.30;99.90;13.30;100542.00;;;;4949602;28;98544;-70
2023/05/16 10:33:20;;;;;;;2.57;1.93;;;13.30;99.90;13.30;100537.00;;;;4951733;28;108066;-70
2023/05/16 10:35:46;;;;;;;2.93;2.10;;;13.30;99.90;13.40;100544.00;;;;4949000;28;83923;-71
2023/05/16 10:38:17;;;;;;;2.57;2.27;;;13.30;99.90;13.40;100536.00;;;;4949173;28;83847;-71
2023/05/16 10:40:44;;;;;;;2.90;2.13;;;13.40;99.90;13.40;100536.00;;;;4948578;28;96638;-70
2023/05/16 10:43:10;;;;;;;2.33;1.87;;;13.40;99.90;13.50;100542.00;;;;4954848;28;83275;-71
2023/05/16 10:45:40;;;;;;;3.57;2.13;;;13.40;99.90;13.50;100539.00;;;;4949901;28;111737;-69